Terminal Aerodrome Forecast
Issued by NWS Twin Cities, MN

Home | Current Version | Previous Version | Graphics & Text | Print | Product List | Glossary On
Versions: 1 2 3 4 5 6 7 8 9 10 11 12 13 14 15 16 17 18 19 20 21
297
FTUS43 KMPX 150906 AAA
TAFSTC
TAF AMD
KSTC 150906Z 1509/1606 29007KT P6SM BKN015 OVC035
     FM151600 VRB03KT P6SM OVC020
     FM152200 21006KT 4SM -SN BKN020 OVC040
     FM160200 16005KT 2SM -SN BKN020 OVC040=

USA.gov is the U.S. government's official web portal to all federal, state and local government web resources and services.